sensor_id;sensor_type;location;lat;lon;timestamp;P1;durP1;ratioP1;P2;durP2;ratioP2
15899;SDS011;8048;50.644;6.184;2023-09-12T00:00:41;9.73;;;8.83;;
15899;SDS011;8048;50.644;6.184;2023-09-12T00:03:06;14.20;;;9.50;;
15899;SDS011;8048;50.644;6.184;2023-09-12T00:05:32;8.27;;;7.57;;
15899;SDS011;8048;50.644;6.184;2023-09-12T00:07:57;8.07;;;7.37;;
15899;SDS011;8048;50.644;6.184;2023-09-12T00:10:23;8.27;;;7.13;;
15899;SDS011;8048;50.644;6.184;2023-09-12T00:12:48;8.60;;;7.77;;
15899;SDS011;8048;50.644;6.184;2023-09-12T00:15:14;12.20;;;8.67;;
15899;SDS011;8048;50.644;6.184;2023-09-12T00:17:39;8.07;;;7.37;;
15899;SDS011;8048;50.644;6.184;2023-09-12T00:20:05;8.30;;;7.57;;
15899;SDS011;8048;50.644;6.184;2023-09-12T00:22:32;8.13;;;7.53;;
15899;SDS011;8048;50.644;6.184;2023-09-12T00:24:58;8.13;;;7.43;;
15899;SDS011;8048;50.644;6.184;2023-09-12T00:27:23;8.07;;;7.37;;
15899;SDS011;8048;50.644;6.184;2023-09-12T00:29:49;7.73;;;7.03;;
15899;SDS011;8048;50.644;6.184;2023-09-12T00:32:14;8.70;;;8.00;;
15899;SDS011;8048;50.644;6.184;2023-09-12T00:34:40;8.00;;;7.20;;
15899;SDS011;8048;50.644;6.184;2023-09-12T00:37:05;8.20;;;7.60;;
15899;SDS011;8048;50.644;6.184;2023-09-12T00:39:31;10.40;;;7.20;;
15899;SDS011;8048;50.644;6.184;2023-09-12T00:41:56;8.97;;;8.17;;
15899;SDS011;8048;50.644;6.184;2023-09-12T00:44:22;7.63;;;6.90;;
15899;SDS011;8048;50.644;6.184;2023-09-12T00:46:48;10.20;;;8.73;;
15899;SDS011;8048;50.644;6.184;2023-09-12T00:49:15;9.20;;;7.63;;
15899;SDS011;8048;50.644;6.184;2023-09-12T00:51:42;8.60;;;7.77;;
15899;SDS011;8048;50.644;6.184;2023-09-12T00:54:09;8.43;;;7.10;;
15899;SDS011;8048;50.644;6.184;2023-09-12T00:56:36;7.33;;;6.50;;
15899;SDS011;8048;50.644;6.184;2023-09-12T00:59:01;8.17;;;7.47;;
15899;SDS011;8048;50.644;6.184;2023-09-12T01:01:28;7.77;;;6.97;;
15899;SDS011;8048;50.644;6.184;2023-09-12T01:03:54;7.83;;;7.23;;
15899;SDS011;8048;50.644;6.184;2023-09-12T01:06:21;8.40;;;7.70;;
15899;SDS011;8048;50.644;6.184;2023-09-12T01:08:50;8.80;;;8.10;;
15899;SDS011;8048;50.644;6.184;2023-09-12T01:11:16;8.93;;;8.03;;
15899;SDS011;8048;50.644;6.184;2023-09-12T01:13:42;8.00;;;7.40;;
15899;SDS011;8048;50.644;6.184;2023-09-12T01:16:08;9.03;;;8.13;;
15899;SDS011;8048;50.644;6.184;2023-09-12T01:18:33;8.60;;;7.80;;
15899;SDS011;8048;50.644;6.184;2023-09-12T01:21:10;8.47;;;7.77;;
15899;SDS011;8048;50.644;6.184;2023-09-12T01:29:38;7.00;;;6.47;;
15899;SDS011;8048;50.644;6.184;2023-09-12T01:32:05;7.90;;;7.20;;
15899;SDS011;8048;50.644;6.184;2023-09-12T01:34:31;8.17;;;7.47;;
15899;SDS011;8048;50.644;6.184;2023-09-12T01:36:56;8.77;;;8.00;;
15899;SDS011;8048;50.644;6.184;2023-09-12T01:39:22;8.20;;;7.50;;
15899;SDS011;8048;50.644;6.184;2023-09-12T01:41:47;8.03;;;7.23;;
15899;SDS011;8048;50.644;6.184;2023-09-12T01:44:14;6.57;;;6.07;;
15899;SDS011;8048;50.644;6.184;2023-09-12T01:46:42;8.13;;;7.33;;
15899;SDS011;8048;50.644;6.184;2023-09-12T01:49:08;7.60;;;7.00;;
15899;SDS011;8048;50.644;6.184;2023-09-12T01:51:35;8.03;;;7.33;;
15899;SDS011;8048;50.644;6.184;2023-09-12T01:54:01;8.30;;;7.50;;
15899;SDS011;8048;50.644;6.184;2023-09-12T01:56:28;7.80;;;7.23;;
15899;SDS011;8048;50.644;6.184;2023-09-12T01:58:55;7.07;;;6.47;;
15899;SDS011;8048;50.644;6.184;2023-09-12T02:01:21;7.27;;;6.63;;
15899;SDS011;8048;50.644;6.184;2023-09-12T02:03:47;7.27;;;6.60;;
15899;SDS011;8048;50.644;6.184;2023-09-12T02:06:12;7.23;;;6.53;;
15899;SDS011;8048;50.644;6.184;2023-09-12T02:08:38;7.70;;;6.90;;
15899;SDS011;8048;50.644;6.184;2023-09-12T02:11:03;6.37;;;5.90;;
15899;SDS011;8048;50.644;6.184;2023-09-12T02:13:29;9.70;;;8.00;;
15899;SDS011;8048;50.644;6.184;2023-09-12T02:16:01;7.33;;;6.63;;
15899;SDS011;8048;50.644;6.184;2023-09-12T02:18:28;7.13;;;6.53;;
15899;SDS011;8048;50.644;6.184;2023-09-12T02:20:53;7.50;;;6.73;;
15899;SDS011;8048;50.644;6.184;2023-09-12T02:23:19;7.63;;;6.93;;
15899;SDS011;8048;50.644;6.184;2023-09-12T02:25:44;8.17;;;7.37;;
15899;SDS011;8048;50.644;6.184;2023-09-12T02:28:10;6.20;;;5.70;;
15899;SDS011;8048;50.644;6.184;2023-09-12T02:30:38;7.10;;;6.50;;
15899;SDS011;8048;50.644;6.184;2023-09-12T02:33:05;6.87;;;6.27;;
15899;SDS011;8048;50.644;6.184;2023-09-12T02:35:30;8.47;;;7.67;;
15899;SDS011;8048;50.644;6.184;2023-09-12T02:37:56;8.13;;;6.67;;
15899;SDS011;8048;50.644;6.184;2023-09-12T02:40:21;7.57;;;6.90;;
15899;SDS011;8048;50.644;6.184;2023-09-12T02:42:47;7.30;;;6.70;;
15899;SDS011;8048;50.644;6.184;2023-09-12T02:45:12;5.73;;;5.23;;
15899;SDS011;8048;50.644;6.184;2023-09-12T02:47:38;7.10;;;6.43;;
15899;SDS011;8048;50.644;6.184;2023-09-12T02:50:04;6.53;;;5.90;;
15899;SDS011;8048;50.644;6.184;2023-09-12T02:52:29;6.27;;;5.70;;
15899;SDS011;8048;50.644;6.184;2023-09-12T02:54:55;7.17;;;6.50;;
15899;SDS011;8048;50.644;6.184;2023-09-12T02:57:20;6.23;;;5.80;;
15899;SDS011;8048;50.644;6.184;2023-09-12T02:59:46;6.50;;;5.90;;
15899;SDS011;8048;50.644;6.184;2023-09-12T03:02:12;8.20;;;7.20;;
15899;SDS011;8048;50.644;6.184;2023-09-12T03:04:37;6.60;;;6.10;;
15899;SDS011;8048;50.644;6.184;2023-09-12T03:07:03;6.10;;;5.60;;
15899;SDS011;8048;50.644;6.184;2023-09-12T03:09:28;5.93;;;5.53;;
15899;SDS011;8048;50.644;6.184;2023-09-12T03:11:54;6.27;;;5.87;;
15899;SDS011;8048;50.644;6.184;2023-09-12T03:14:19;6.63;;;6.20;;
15899;SDS011;8048;50.644;6.184;2023-09-12T03:16:45;7.23;;;6.53;;
15899;SDS011;8048;50.644;6.184;2023-09-12T03:19:11;6.60;;;6.07;;
15899;SDS011;8048;50.644;6.184;2023-09-12T03:21:36;5.87;;;5.40;;
15899;SDS011;8048;50.644;6.184;2023-09-12T03:24:02;9.17;;;7.27;;
15899;SDS011;8048;50.644;6.184;2023-09-12T03:26:27;6.90;;;6.20;;
15899;SDS011;8048;50.644;6.184;2023-09-12T03:28:53;9.23;;;5.67;;
15899;SDS011;8048;50.644;6.184;2023-09-12T03:31:18;6.70;;;6.00;;
15899;SDS011;8048;50.644;6.184;2023-09-12T03:33:44;7.03;;;6.37;;
15899;SDS011;8048;50.644;6.184;2023-09-12T03:36:14;8.47;;;7.70;;
15899;SDS011;8048;50.644;6.184;2023-09-12T03:38:40;8.13;;;7.40;;
15899;SDS011;8048;50.644;6.184;2023-09-12T03:41:06;7.77;;;7.07;;
15899;SDS011;8048;50.644;6.184;2023-09-12T03:43:32;7.60;;;7.03;;
15899;SDS011;8048;50.644;6.184;2023-09-12T03:45:58;9.87;;;8.23;;
15899;SDS011;8048;50.644;6.184;2023-09-12T03:48:24;9.20;;;8.27;;
15899;SDS011;8048;50.644;6.184;2023-09-12T03:50:50;8.57;;;7.70;;
15899;SDS011;8048;50.644;6.184;2023-09-12T03:53:15;8.80;;;7.90;;
15899;SDS011;8048;50.644;6.184;2023-09-12T03:55:41;8.73;;;7.93;;
15899;SDS011;8048;50.644;6.184;2023-09-12T03:58:07;9.30;;;7.57;;
15899;SDS011;8048;50.644;6.184;2023-09-12T04:00:32;7.87;;;7.00;;
15899;SDS011;8048;50.644;6.184;2023-09-12T04:02:58;7.87;;;7.17;;
15899;SDS011;8048;50.644;6.184;2023-09-12T04:05:24;7.80;;;7.13;;
15899;SDS011;8048;50.644;6.184;2023-09-12T04:07:50;7.80;;;7.10;;
15899;SDS011;8048;50.644;6.184;2023-09-12T04:10:17;5.90;;;5.40;;
15899;SDS011;8048;50.644;6.184;2023-09-12T04:12:43;7.57;;;6.87;;
15899;SDS011;8048;50.644;6.184;2023-09-12T04:15:09;8.13;;;7.40;;
15899;SDS011;8048;50.644;6.184;2023-09-12T04:17:34;8.90;;;6.67;;
15899;SDS011;8048;50.644;6.184;2023-09-12T04:20:00;8.23;;;7.13;;
15899;SDS011;8048;50.644;6.184;2023-09-12T04:22:25;8.30;;;7.60;;
15899;SDS011;8048;50.644;6.184;2023-09-12T04:24:51;7.60;;;6.90;;
15899;SDS011;8048;50.644;6.184;2023-09-12T04:27:16;8.50;;;7.73;;
15899;SDS011;8048;50.644;6.184;2023-09-12T04:29:42;7.30;;;6.60;;
15899;SDS011;8048;50.644;6.184;2023-09-12T04:32:07;6.70;;;6.20;;
15899;SDS011;8048;50.644;6.184;2023-09-12T04:34:34;5.80;;;5.40;;
15899;SDS011;8048;50.644;6.184;2023-09-12T04:37:00;6.10;;;5.47;;
15899;SDS011;8048;50.644;6.184;2023-09-12T04:39:27;5.80;;;5.30;;
15899;SDS011;8048;50.644;6.184;2023-09-12T04:41:53;9.97;;;5.67;;
15899;SDS011;8048;50.644;6.184;2023-09-12T04:44:18;7.60;;;7.00;;
15899;SDS011;8048;50.644;6.184;2023-09-12T04:46:44;10.20;;;8.30;;
15899;SDS011;8048;50.644;6.184;2023-09-12T04:49:09;14.20;;;11.07;;
15899;SDS011;8048;50.644;6.184;2023-09-12T04:51:35;13.00;;;10.97;;
15899;SDS011;8048;50.644;6.184;2023-09-12T04:54:00;17.00;;;10.80;;
15899;SDS011;8048;50.644;6.184;2023-09-12T04:56:26;12.50;;;11.07;;
15899;SDS011;8048;50.644;6.184;2023-09-12T04:58:51;11.43;;;9.73;;
15899;SDS011;8048;50.644;6.184;2023-09-12T05:01:17;16.37;;;10.80;;
15899;SDS011;8048;50.644;6.184;2023-09-12T05:03:43;13.83;;;11.80;;
15899;SDS011;8048;50.644;6.184;2023-09-12T05:06:09;15.67;;;9.40;;
15899;SDS011;8048;50.644;6.184;2023-09-12T05:08:35;13.70;;;10.53;;
15899;SDS011;8048;50.644;6.184;2023-09-12T05:11:01;12.97;;;11.57;;
15899;SDS011;8048;50.644;6.184;2023-09-12T05:13:27;13.17;;;11.67;;
15899;SDS011;8048;50.644;6.184;2023-09-12T05:15:53;11.00;;;9.60;;
15899;SDS011;8048;50.644;6.184;2023-09-12T05:18:20;9.43;;;8.53;;
15899;SDS011;8048;50.644;6.184;2023-09-12T05:20:46;11.47;;;10.43;;
15899;SDS011;8048;50.644;6.184;2023-09-12T05:23:11;11.33;;;9.20;;
15899;SDS011;8048;50.644;6.184;2023-09-12T05:25:37;11.83;;;10.70;;
15899;SDS011;8048;50.644;6.184;2023-09-12T05:28:02;11.37;;;10.27;;
15899;SDS011;8048;50.644;6.184;2023-09-12T05:30:29;12.93;;;11.63;;
15899;SDS011;8048;50.644;6.184;2023-09-12T05:32:55;12.40;;;11.20;;
15899;SDS011;8048;50.644;6.184;2023-09-12T05:35:20;13.17;;;10.70;;
15899;SDS011;8048;50.644;6.184;2023-09-12T05:37:46;13.13;;;10.80;;
15899;SDS011;8048;50.644;6.184;2023-09-12T05:40:12;10.60;;;9.53;;
15899;SDS011;8048;50.644;6.184;2023-09-12T05:42:38;11.77;;;9.83;;
15899;SDS011;8048;50.644;6.184;2023-09-12T05:45:04;15.20;;;10.67;;
15899;SDS011;8048;50.644;6.184;2023-09-12T05:47:30;15.20;;;11.10;;
15899;SDS011;8048;50.644;6.184;2023-09-12T05:49:56;14.53;;;12.57;;
15899;SDS011;8048;50.644;6.184;2023-09-12T05:52:24;13.20;;;11.80;;
15899;SDS011;8048;50.644;6.184;2023-09-12T05:54:49;12.47;;;11.23;;
15899;SDS011;8048;50.644;6.184;2023-09-12T05:57:15;12.40;;;10.70;;
15899;SDS011;8048;50.644;6.184;2023-09-12T05:59:41;13.40;;;11.97;;
15899;SDS011;8048;50.644;6.184;2023-09-12T06:02:06;12.60;;;11.40;;
15899;SDS011;8048;50.644;6.184;2023-09-12T06:04:34;15.37;;;13.77;;
15899;SDS011;8048;50.644;6.184;2023-09-12T06:07:01;12.17;;;10.93;;
15899;SDS011;8048;50.644;6.184;2023-09-12T06:09:28;14.33;;;11.93;;
15899;SDS011;8048;50.644;6.184;2023-09-12T06:11:54;13.80;;;12.33;;
15899;SDS011;8048;50.644;6.184;2023-09-12T06:14:19;14.20;;;12.80;;
15899;SDS011;8048;50.644;6.184;2023-09-12T06:16:45;12.27;;;11.10;;
15899;SDS011;8048;50.644;6.184;2023-09-12T06:19:11;15.03;;;13.17;;
15899;SDS011;8048;50.644;6.184;2023-09-12T06:21:36;15.30;;;13.70;;
15899;SDS011;8048;50.644;6.184;2023-09-12T06:24:12;14.00;;;11.80;;
15899;SDS011;8048;50.644;6.184;2023-09-12T06:26:42;12.57;;;11.27;;
15899;SDS011;8048;50.644;6.184;2023-09-12T06:29:07;14.00;;;11.30;;
15899;SDS011;8048;50.644;6.184;2023-09-12T06:31:33;11.20;;;9.30;;
15899;SDS011;8048;50.644;6.184;2023-09-12T06:34:00;9.43;;;8.53;;
15899;SDS011;8048;50.644;6.184;2023-09-12T06:36:26;7.53;;;6.83;;
15899;SDS011;8048;50.644;6.184;2023-09-12T06:38:54;9.13;;;8.20;;
15899;SDS011;8048;50.644;6.184;2023-09-12T06:41:23;9.53;;;8.73;;
15899;SDS011;8048;50.644;6.184;2023-09-12T06:43:48;9.87;;;8.87;;
15899;SDS011;8048;50.644;6.184;2023-09-12T06:46:14;8.20;;;7.40;;
15899;SDS011;8048;50.644;6.184;2023-09-12T06:48:42;8.43;;;7.67;;
15899;SDS011;8048;50.644;6.184;2023-09-12T06:51:09;9.27;;;8.47;;
15899;SDS011;8048;50.644;6.184;2023-09-12T06:53:35;8.50;;;6.33;;
15899;SDS011;8048;50.644;6.184;2023-09-12T06:56:04;7.13;;;6.07;;
15899;SDS011;8048;50.644;6.184;2023-09-12T06:58:29;6.20;;;5.80;;
15899;SDS011;8048;50.644;6.184;2023-09-12T07:00:55;6.37;;;5.87;;
15899;SDS011;8048;50.644;6.184;2023-09-12T07:03:21;7.40;;;6.53;;
15899;SDS011;8048;50.644;6.184;2023-09-12T07:05:46;8.50;;;5.90;;
15899;SDS011;8048;50.644;6.184;2023-09-12T07:08:13;6.30;;;5.80;;
15899;SDS011;8048;50.644;6.184;2023-09-12T07:10:43;6.50;;;6.00;;
15899;SDS011;8048;50.644;6.184;2023-09-12T07:13:10;6.70;;;6.20;;
15899;SDS011;8048;50.644;6.184;2023-09-12T07:15:36;5.40;;;5.00;;
15899;SDS011;8048;50.644;6.184;2023-09-12T07:18:01;10.00;;;6.60;;
15899;SDS011;8048;50.644;6.184;2023-09-12T07:20:27;7.10;;;6.60;;
15899;SDS011;8048;50.644;6.184;2023-09-12T07:22:53;7.23;;;6.57;;
15899;SDS011;8048;50.644;6.184;2023-09-12T07:25:18;6.43;;;5.70;;
15899;SDS011;8048;50.644;6.184;2023-09-12T07:27:45;6.33;;;5.50;;
15899;SDS011;8048;50.644;6.184;2023-09-12T07:30:11;5.50;;;5.10;;
15899;SDS011;8048;50.644;6.184;2023-09-12T07:32:37;5.97;;;5.47;;
15899;SDS011;8048;50.644;6.184;2023-09-12T07:35:02;7.23;;;6.50;;
15899;SDS011;8048;50.644;6.184;2023-09-12T07:37:28;6.23;;;5.67;;
15899;SDS011;8048;50.644;6.184;2023-09-12T07:39:53;5.97;;;5.57;;
15899;SDS011;8048;50.644;6.184;2023-09-12T07:42:22;6.30;;;5.70;;
15899;SDS011;8048;50.644;6.184;2023-09-12T07:44:48;6.33;;;5.83;;
15899;SDS011;8048;50.644;6.184;2023-09-12T07:47:14;6.83;;;6.23;;
15899;SDS011;8048;50.644;6.184;2023-09-12T07:49:40;6.03;;;5.43;;
15899;SDS011;8048;50.644;6.184;2023-09-12T07:52:06;5.90;;;5.37;;
15899;SDS011;8048;50.644;6.184;2023-09-12T07:54:31;6.00;;;5.37;;
15899;SDS011;8048;50.644;6.184;2023-09-12T07:56:57;6.80;;;6.20;;
15899;SDS011;8048;50.644;6.184;2023-09-12T07:59:23;5.03;;;4.63;;
15899;SDS011;8048;50.644;6.184;2023-09-12T08:01:49;6.43;;;6.00;;
15899;SDS011;8048;50.644;6.184;2023-09-12T08:04:14;6.20;;;5.70;;
15899;SDS011;8048;50.644;6.184;2023-09-12T08:06:40;4.87;;;4.23;;
15899;SDS011;8048;50.644;6.184;2023-09-12T08:09:06;5.20;;;4.80;;
15899;SDS011;8048;50.644;6.184;2023-09-12T08:11:33;5.33;;;4.80;;
15899;SDS011;8048;50.644;6.184;2023-09-12T08:13:59;4.73;;;4.43;;
15899;SDS011;8048;50.644;6.184;2023-09-12T08:16:24;5.20;;;4.70;;
15899;SDS011;8048;50.644;6.184;2023-09-12T08:18:50;7.93;;;7.23;;
15899;SDS011;8048;50.644;6.184;2023-09-12T08:21:15;7.20;;;5.73;;
15899;SDS011;8048;50.644;6.184;2023-09-12T08:23:41;6.87;;;6.37;;
15899;SDS011;8048;50.644;6.184;2023-09-12T08:26:06;9.30;;;6.27;;
15899;SDS011;8048;50.644;6.184;2023-09-12T08:28:33;8.20;;;7.40;;
15899;SDS011;8048;50.644;6.184;2023-09-12T08:30:59;7.40;;;6.80;;
15899;SDS011;8048;50.644;6.184;2023-09-12T08:33:24;7.20;;;6.60;;
15899;SDS011;8048;50.644;6.184;2023-09-12T08:35:50;7.60;;;6.87;;
15899;SDS011;8048;50.644;6.184;2023-09-12T08:38:16;7.97;;;7.07;;
15899;SDS011;8048;50.644;6.184;2023-09-12T08:40:47;6.70;;;6.20;;
15899;SDS011;8048;50.644;6.184;2023-09-12T08:43:16;7.70;;;6.90;;
15899;SDS011;8048;50.644;6.184;2023-09-12T08:45:42;7.87;;;6.50;;
15899;SDS011;8048;50.644;6.184;2023-09-12T08:48:11;8.50;;;7.70;;
15899;SDS011;8048;50.644;6.184;2023-09-12T08:50:37;7.30;;;6.60;;
15899;SDS011;8048;50.644;6.184;2023-09-12T08:53:03;7.90;;;7.17;;
15899;SDS011;8048;50.644;6.184;2023-09-12T08:55:29;6.50;;;6.00;;
15899;SDS011;8048;50.644;6.184;2023-09-12T08:57:58;6.97;;;6.47;;
15899;SDS011;8048;50.644;6.184;2023-09-12T09:00:24;7.50;;;6.80;;
15899;SDS011;8048;50.644;6.184;2023-09-12T09:02:52;8.40;;;7.60;;
15899;SDS011;8048;50.644;6.184;2023-09-12T09:05:18;7.20;;;6.23;;
15899;SDS011;8048;50.644;6.184;2023-09-12T09:07:47;6.30;;;5.80;;
15899;SDS011;8048;50.644;6.184;2023-09-12T09:10:15;8.67;;;7.87;;
15899;SDS011;8048;50.644;6.184;2023-09-12T09:12:43;7.63;;;7.03;;
15899;SDS011;8048;50.644;6.184;2023-09-12T09:18:06;7.90;;;7.20;;
15899;SDS011;8048;50.644;6.184;2023-09-12T09:20:32;8.70;;;8.00;;
15899;SDS011;8048;50.644;6.184;2023-09-12T09:23:09;11.10;;;9.03;;
15899;SDS011;8048;50.644;6.184;2023-09-12T09:25:36;8.30;;;7.63;;
15899;SDS011;8048;50.644;6.184;2023-09-12T09:28:05;9.40;;;8.10;;
15899;SDS011;8048;50.644;6.184;2023-09-12T09:30:44;11.10;;;10.20;;
15899;SDS011;8048;50.644;6.184;2023-09-12T09:33:12;11.80;;;10.90;;
15899;SDS011;8048;50.644;6.184;2023-09-12T09:35:40;14.07;;;12.77;;
15899;SDS011;8048;50.644;6.184;2023-09-12T09:38:07;13.27;;;11.97;;
15899;SDS011;8048;50.644;6.184;2023-09-12T09:40:33;16.87;;;15.47;;
15899;SDS011;8048;50.644;6.184;2023-09-12T09:43:01;16.70;;;15.30;;
15899;SDS011;8048;50.644;6.184;2023-09-12T09:45:28;18.03;;;16.33;;
15899;SDS011;8048;50.644;6.184;2023-09-12T09:47:58;19.03;;;17.10;;
15899;SDS011;8048;50.644;6.184;2023-09-12T09:50:29;16.20;;;14.70;;
15899;SDS011;8048;50.644;6.184;2023-09-12T09:52:55;15.90;;;14.60;;
15899;SDS011;8048;50.644;6.184;2023-09-12T09:55:22;19.03;;;15.70;;
15899;SDS011;8048;50.644;6.184;2023-09-12T09:57:49;17.10;;;15.50;;
15899;SDS011;8048;50.644;6.184;2023-09-12T10:00:18;13.33;;;12.17;;
15899;SDS011;8048;50.644;6.184;2023-09-12T10:02:45;14.03;;;12.83;;
15899;SDS011;8048;50.644;6.184;2023-09-12T10:05:12;14.23;;;12.90;;
15899;SDS011;8048;50.644;6.184;2023-09-12T10:07:39;13.07;;;11.90;;
15899;SDS011;8048;50.644;6.184;2023-09-12T10:10:07;14.77;;;13.27;;
15899;SDS011;8048;50.644;6.184;2023-09-12T10:12:36;16.77;;;15.27;;
15899;SDS011;8048;50.644;6.184;2023-09-12T10:15:08;13.90;;;12.70;;
15899;SDS011;8048;50.644;6.184;2023-09-12T10:17:36;10.43;;;9.50;;
15899;SDS011;8048;50.644;6.184;2023-09-12T10:20:04;11.93;;;9.73;;
15899;SDS011;8048;50.644;6.184;2023-09-12T10:22:39;11.20;;;9.90;;
15899;SDS011;8048;50.644;6.184;2023-09-12T10:25:08;9.40;;;8.57;;
15899;SDS011;8048;50.644;6.184;2023-09-12T10:27:36;11.73;;;9.87;;
15899;SDS011;8048;50.644;6.184;2023-09-12T10:30:02;8.87;;;7.97;;
15899;SDS011;8048;50.644;6.184;2023-09-12T10:32:29;9.90;;;9.00;;
15899;SDS011;8048;50.644;6.184;2023-09-12T10:34:57;9.47;;;8.63;;
15899;SDS011;8048;50.644;6.184;2023-09-12T10:37:24;9.27;;;8.40;;
15899;SDS011;8048;50.644;6.184;2023-09-12T10:39:53;9.40;;;8.60;;
15899;SDS011;8048;50.644;6.184;2023-09-12T10:42:19;11.80;;;9.27;;
15899;SDS011;8048;50.644;6.184;2023-09-12T10:44:45;9.70;;;8.70;;
15899;SDS011;8048;50.644;6.184;2023-09-12T10:47:11;9.43;;;8.57;;
15899;SDS011;8048;50.644;6.184;2023-09-12T10:49:39;9.30;;;8.60;;
15899;SDS011;8048;50.644;6.184;2023-09-12T10:52:08;10.20;;;9.30;;
15899;SDS011;8048;50.644;6.184;2023-09-12T10:54:39;9.60;;;8.80;;
15899;SDS011;8048;50.644;6.184;2023-09-12T10:57:09;9.63;;;8.97;;
15899;SDS011;8048;50.644;6.184;2023-09-12T11:02:27;8.63;;;7.93;;
15899;SDS011;8048;50.644;6.184;2023-09-12T11:05:00;8.93;;;8.27;;
15899;SDS011;8048;50.644;6.184;2023-09-12T11:12:40;10.10;;;9.10;;
15899;SDS011;8048;50.644;6.184;2023-09-12T11:15:07;8.73;;;7.90;;
15899;SDS011;8048;50.644;6.184;2023-09-12T11:17:38;10.13;;;9.33;;
15899;SDS011;8048;50.644;6.184;2023-09-12T11:20:04;9.93;;;9.13;;
15899;SDS011;8048;50.644;6.184;2023-09-12T11:22:35;10.50;;;9.50;;
15899;SDS011;8048;50.644;6.184;2023-09-12T11:25:18;10.80;;;9.70;;
15899;SDS011;8048;50.644;6.184;2023-09-12T11:30:17;9.50;;;8.70;;
15899;SDS011;8048;50.644;6.184;2023-09-12T11:32:44;9.60;;;8.90;;
15899;SDS011;8048;50.644;6.184;2023-09-12T11:35:13;9.23;;;8.63;;
15899;SDS011;8048;50.644;6.184;2023-09-12T11:37:40;10.70;;;8.20;;
15899;SDS011;8048;50.644;6.184;2023-09-12T11:42:48;8.27;;;7.67;;
15899;SDS011;8048;50.644;6.184;2023-09-12T11:45:15;7.53;;;7.03;;
15899;SDS011;8048;50.644;6.184;2023-09-12T11:47:44;7.97;;;7.20;;
15899;SDS011;8048;50.644;6.184;2023-09-12T11:53:08;8.53;;;7.83;;
15899;SDS011;8048;50.644;6.184;2023-09-12T11:55:35;8.50;;;7.70;;
15899;SDS011;8048;50.644;6.184;2023-09-12T11:58:07;9.20;;;8.40;;
15899;SDS011;8048;50.644;6.184;2023-09-12T12:00:33;9.07;;;8.27;;
15899;SDS011;8048;50.644;6.184;2023-09-12T12:02:58;9.00;;;8.20;;
15899;SDS011;8048;50.644;6.184;2023-09-12T12:05:24;10.80;;;10.10;;
15899;SDS011;8048;50.644;6.184;2023-09-12T12:07:50;12.60;;;11.63;;
15899;SDS011;8048;50.644;6.184;2023-09-12T12:10:16;9.73;;;8.83;;
15899;SDS011;8048;50.644;6.184;2023-09-12T12:12:43;8.80;;;8.10;;
15899;SDS011;8048;50.644;6.184;2023-09-12T12:15:11;12.43;;;10.67;;
15899;SDS011;8048;50.644;6.184;2023-09-12T12:17:37;10.33;;;9.40;;
15899;SDS011;8048;50.644;6.184;2023-09-12T12:20:06;10.67;;;9.67;;
15899;SDS011;8048;50.644;6.184;2023-09-12T12:22:35;11.30;;;10.27;;
15899;SDS011;8048;50.644;6.184;2023-09-12T12:25:05;11.43;;;10.60;;
15899;SDS011;8048;50.644;6.184;2023-09-12T12:27:32;13.20;;;12.10;;
15899;SDS011;8048;50.644;6.184;2023-09-12T12:30:00;14.43;;;12.90;;
15899;SDS011;8048;50.644;6.184;2023-09-12T12:32:25;12.43;;;11.20;;
15899;SDS011;8048;50.644;6.184;2023-09-12T12:34:51;11.70;;;10.80;;
15899;SDS011;8048;50.644;6.184;2023-09-12T12:37:16;11.70;;;10.60;;
15899;SDS011;8048;50.644;6.184;2023-09-12T12:39:42;12.30;;;11.20;;
15899;SDS011;8048;50.644;6.184;2023-09-12T12:42:08;12.13;;;11.13;;
15899;SDS011;8048;50.644;6.184;2023-09-12T12:44:34;11.87;;;11.07;;
15899;SDS011;8048;50.644;6.184;2023-09-12T12:47:06;12.30;;;11.20;;
15899;SDS011;8048;50.644;6.184;2023-09-12T12:49:37;13.20;;;12.10;;
15899;SDS011;8048;50.644;6.184;2023-09-12T12:52:04;12.33;;;11.20;;
15899;SDS011;8048;50.644;6.184;2023-09-12T12:54:33;13.63;;;12.30;;
15899;SDS011;8048;50.644;6.184;2023-09-12T12:56:59;11.13;;;10.20;;
15899;SDS011;8048;50.644;6.184;2023-09-12T12:59:26;12.43;;;11.50;;
15899;SDS011;8048;50.644;6.184;2023-09-12T13:01:51;13.10;;;12.00;;
15899;SDS011;8048;50.644;6.184;2023-09-12T13:04:17;12.10;;;11.20;;
15899;SDS011;8048;50.644;6.184;2023-09-12T13:06:42;10.80;;;10.00;;
15899;SDS011;8048;50.644;6.184;2023-09-12T13:09:08;12.33;;;11.23;;
15899;SDS011;8048;50.644;6.184;2023-09-12T13:11:36;11.77;;;10.83;;
15899;SDS011;8048;50.644;6.184;2023-09-12T13:14:03;11.23;;;10.30;;
15899;SDS011;8048;50.644;6.184;2023-09-12T13:16:36;11.93;;;10.80;;
15899;SDS011;8048;50.644;6.184;2023-09-12T13:19:03;10.10;;;9.40;;
15899;SDS011;8048;50.644;6.184;2023-09-12T13:21:28;10.50;;;9.70;;
15899;SDS011;8048;50.644;6.184;2023-09-12T13:23:54;11.40;;;10.67;;
15899;SDS011;8048;50.644;6.184;2023-09-12T13:26:19;8.53;;;7.93;;
15899;SDS011;8048;50.644;6.184;2023-09-12T13:28:45;10.13;;;9.47;;
15899;SDS011;8048;50.644;6.184;2023-09-12T13:31:10;10.67;;;9.87;;
15899;SDS011;8048;50.644;6.184;2023-09-12T13:33:36;10.20;;;9.40;;
15899;SDS011;8048;50.644;6.184;2023-09-12T13:36:02;9.60;;;8.73;;
15899;SDS011;8048;50.644;6.184;2023-09-12T13:38:28;10.13;;;9.43;;
15899;SDS011;8048;50.644;6.184;2023-09-12T13:40:54;8.20;;;7.57;;
15899;SDS011;8048;50.644;6.184;2023-09-12T13:43:19;8.73;;;8.03;;
15899;SDS011;8048;50.644;6.184;2023-09-12T13:45:45;10.17;;;9.47;;
15899;SDS011;8048;50.644;6.184;2023-09-12T13:48:10;10.57;;;9.67;;
15899;SDS011;8048;50.644;6.184;2023-09-12T13:50:37;9.50;;;8.90;;
15899;SDS011;8048;50.644;6.184;2023-09-12T13:53:03;10.00;;;9.27;;
15899;SDS011;8048;50.644;6.184;2023-09-12T13:55:31;10.03;;;9.33;;
15899;SDS011;8048;50.644;6.184;2023-09-12T13:57:56;10.20;;;9.40;;
15899;SDS011;8048;50.644;6.184;2023-09-12T14:00:22;10.57;;;9.77;;
15899;SDS011;8048;50.644;6.184;2023-09-12T14:02:47;8.63;;;8.03;;
15899;SDS011;8048;50.644;6.184;2023-09-12T14:05:13;10.10;;;9.33;;
15899;SDS011;8048;50.644;6.184;2023-09-12T14:07:38;10.33;;;9.50;;
15899;SDS011;8048;50.644;6.184;2023-09-12T14:10:06;9.90;;;9.10;;
15899;SDS011;8048;50.644;6.184;2023-09-12T14:12:32;10.13;;;9.27;;
15899;SDS011;8048;50.644;6.184;2023-09-12T14:14:57;11.07;;;10.07;;
15899;SDS011;8048;50.644;6.184;2023-09-12T14:17:23;8.83;;;8.13;;
15899;SDS011;8048;50.644;6.184;2023-09-12T14:19:48;9.23;;;8.53;;
15899;SDS011;8048;50.644;6.184;2023-09-12T14:22:14;8.43;;;7.83;;
15899;SDS011;8048;50.644;6.184;2023-09-12T14:24:40;9.27;;;8.57;;
15899;SDS011;8048;50.644;6.184;2023-09-12T14:27:06;8.03;;;7.40;;
15899;SDS011;8048;50.644;6.184;2023-09-12T14:29:31;7.97;;;7.40;;
15899;SDS011;8048;50.644;6.184;2023-09-12T14:31:57;7.87;;;7.17;;
15899;SDS011;8048;50.644;6.184;2023-09-12T14:34:25;8.30;;;7.70;;
15899;SDS011;8048;50.644;6.184;2023-09-12T14:36:53;9.60;;;8.70;;
15899;SDS011;8048;50.644;6.184;2023-09-12T14:39:20;8.87;;;8.17;;
15899;SDS011;8048;50.644;6.184;2023-09-12T14:41:46;8.10;;;7.00;;
15899;SDS011;8048;50.644;6.184;2023-09-12T14:44:16;8.03;;;7.53;;
15899;SDS011;8048;50.644;6.184;2023-09-12T14:46:52;9.40;;;8.50;;
15899;SDS011;8048;50.644;6.184;2023-09-12T14:49:17;8.27;;;7.57;;
15899;SDS011;8048;50.644;6.184;2023-09-12T14:51:43;9.07;;;8.27;;
15899;SDS011;8048;50.644;6.184;2023-09-12T14:54:08;9.60;;;8.90;;
15899;SDS011;8048;50.644;6.184;2023-09-12T14:56:34;8.60;;;8.00;;
15899;SDS011;8048;50.644;6.184;2023-09-12T14:59:00;8.33;;;7.20;;
15899;SDS011;8048;50.644;6.184;2023-09-12T15:01:27;9.20;;;8.40;;
15899;SDS011;8048;50.644;6.184;2023-09-12T15:03:53;8.47;;;7.93;;
15899;SDS011;8048;50.644;6.184;2023-09-12T15:06:19;9.60;;;8.70;;
15899;SDS011;8048;50.644;6.184;2023-09-12T15:08:45;8.20;;;7.50;;
15899;SDS011;8048;50.644;6.184;2023-09-12T15:11:10;8.20;;;7.60;;
15899;SDS011;8048;50.644;6.184;2023-09-12T15:13:36;8.37;;;7.77;;